sensor_id;sensor_type;location;lat;lon;timestamp;P1;durP1;ratioP1;P2;durP2;ratioP2
21168;SDS011;10742;51.816;8.662;2022-10-31T00:02:29;13.53;;;4.57;;
21168;SDS011;10742;51.816;8.662;2022-10-31T00:05:32;11.53;;;4.93;;
21168;SDS011;10742;51.816;8.662;2022-10-31T00:08:34;25.87;;;5.83;;
21168;SDS011;10742;51.816;8.662;2022-10-31T00:11:36;13.17;;;5.03;;
21168;SDS011;10742;51.816;8.662;2022-10-31T00:14:39;14.13;;;5.27;;
21168;SDS011;10742;51.816;8.662;2022-10-31T00:17:41;11.37;;;5.37;;
21168;SDS011;10742;51.816;8.662;2022-10-31T00:20:43;16.17;;;5.20;;
21168;SDS011;10742;51.816;8.662;2022-10-31T00:23:46;12.00;;;4.83;;
21168;SDS011;10742;51.816;8.662;2022-10-31T00:26:48;13.50;;;5.20;;
21168;SDS011;10742;51.816;8.662;2022-10-31T00:29:51;8.80;;;4.93;;
21168;SDS011;10742;51.816;8.662;2022-10-31T00:32:53;13.27;;;4.87;;
21168;SDS011;10742;51.816;8.662;2022-10-31T00:35:56;11.17;;;5.10;;
21168;SDS011;10742;51.816;8.662;2022-10-31T00:38:58;13.67;;;5.60;;
21168;SDS011;10742;51.816;8.662;2022-10-31T00:42:01;9.60;;;5.37;;
21168;SDS011;10742;51.816;8.662;2022-10-31T00:45:03;9.67;;;5.00;;
21168;SDS011;10742;51.816;8.662;2022-10-31T00:48:06;13.30;;;5.27;;
21168;SDS011;10742;51.816;8.662;2022-10-31T00:51:08;13.37;;;5.27;;
21168;SDS011;10742;51.816;8.662;2022-10-31T00:54:11;9.93;;;4.50;;
21168;SDS011;10742;51.816;8.662;2022-10-31T00:57:13;14.57;;;5.13;;
21168;SDS011;10742;51.816;8.662;2022-10-31T01:00:16;11.47;;;4.87;;
21168;SDS011;10742;51.816;8.662;2022-10-31T01:03:19;12.33;;;5.00;;
21168;SDS011;10742;51.816;8.662;2022-10-31T01:06:32;13.40;;;5.00;;
21168;SDS011;10742;51.816;8.662;2022-10-31T01:09:35;9.30;;;4.63;;
21168;SDS011;10742;51.816;8.662;2022-10-31T01:12:38;11.70;;;4.73;;
21168;SDS011;10742;51.816;8.662;2022-10-31T01:15:45;13.37;;;5.47;;
21168;SDS011;10742;51.816;8.662;2022-10-31T01:18:54;11.73;;;5.20;;
21168;SDS011;10742;51.816;8.662;2022-10-31T01:21:57;11.10;;;5.40;;
21168;SDS011;10742;51.816;8.662;2022-10-31T01:25:03;11.17;;;5.67;;
21168;SDS011;10742;51.816;8.662;2022-10-31T01:28:06;16.23;;;6.23;;
21168;SDS011;10742;51.816;8.662;2022-10-31T01:31:09;13.83;;;5.50;;
21168;SDS011;10742;51.816;8.662;2022-10-31T01:34:15;12.07;;;5.43;;
21168;SDS011;10742;51.816;8.662;2022-10-31T01:37:18;11.90;;;5.77;;
21168;SDS011;10742;51.816;8.662;2022-10-31T01:40:20;12.33;;;5.40;;
21168;SDS011;10742;51.816;8.662;2022-10-31T01:43:23;11.13;;;5.33;;
21168;SDS011;10742;51.816;8.662;2022-10-31T01:46:54;12.13;;;5.30;;
21168;SDS011;10742;51.816;8.662;2022-10-31T01:50:01;12.97;;;5.17;;
21168;SDS011;10742;51.816;8.662;2022-10-31T01:53:07;10.47;;;5.57;;
21168;SDS011;10742;51.816;8.662;2022-10-31T01:56:13;10.00;;;5.23;;
21168;SDS011;10742;51.816;8.662;2022-10-31T01:59:17;9.63;;;5.10;;
21168;SDS011;10742;51.816;8.662;2022-10-31T02:02:22;12.97;;;5.43;;
21168;SDS011;10742;51.816;8.662;2022-10-31T02:05:26;11.80;;;5.50;;
21168;SDS011;10742;51.816;8.662;2022-10-31T02:08:32;17.63;;;5.60;;
21168;SDS011;10742;51.816;8.662;2022-10-31T02:11:36;9.87;;;4.83;;
21168;SDS011;10742;51.816;8.662;2022-10-31T02:14:38;14.57;;;5.70;;
21168;SDS011;10742;51.816;8.662;2022-10-31T02:17:41;16.77;;;5.30;;
21168;SDS011;10742;51.816;8.662;2022-10-31T02:20:54;15.97;;;5.73;;
21168;SDS011;10742;51.816;8.662;2022-10-31T02:27:21;14.27;;;6.33;;
21168;SDS011;10742;51.816;8.662;2022-10-31T02:30:39;14.67;;;6.87;;
21168;SDS011;10742;51.816;8.662;2022-10-31T02:34:31;16.17;;;6.17;;
21168;SDS011;10742;51.816;8.662;2022-10-31T02:37:34;16.00;;;7.90;;
21168;SDS011;10742;51.816;8.662;2022-10-31T02:44:54;28.17;;;11.63;;
21168;SDS011;10742;51.816;8.662;2022-10-31T02:48:08;41.70;;;17.30;;
21168;SDS011;10742;51.816;8.662;2022-10-31T02:51:16;64.57;;;21.50;;
21168;SDS011;10742;51.816;8.662;2022-10-31T02:54:22;59.47;;;20.20;;
21168;SDS011;10742;51.816;8.662;2022-10-31T02:57:31;50.07;;;18.33;;
21168;SDS011;10742;51.816;8.662;2022-10-31T03:04:06;62.57;;;21.00;;
21168;SDS011;10742;51.816;8.662;2022-10-31T03:07:25;55.60;;;19.23;;
21168;SDS011;10742;51.816;8.662;2022-10-31T03:10:41;53.13;;;22.43;;
21168;SDS011;10742;51.816;8.662;2022-10-31T03:14:00;53.23;;;22.27;;
21168;SDS011;10742;51.816;8.662;2022-10-31T03:17:26;80.33;;;24.47;;
21168;SDS011;10742;51.816;8.662;2022-10-31T03:20:55;56.57;;;20.27;;
21168;SDS011;10742;51.816;8.662;2022-10-31T03:24:02;40.20;;;15.40;;
21168;SDS011;10742;51.816;8.662;2022-10-31T03:27:10;67.37;;;21.07;;
21168;SDS011;10742;51.816;8.662;2022-10-31T03:30:15;51.77;;;18.13;;
21168;SDS011;10742;51.816;8.662;2022-10-31T03:33:31;77.17;;;22.40;;
21168;SDS011;10742;51.816;8.662;2022-10-31T03:36:36;40.10;;;14.83;;
21168;SDS011;10742;51.816;8.662;2022-10-31T03:39:42;45.13;;;15.17;;
21168;SDS011;10742;51.816;8.662;2022-10-31T03:42:53;49.40;;;16.27;;
21168;SDS011;10742;51.816;8.662;2022-10-31T03:45:59;48.50;;;15.60;;
21168;SDS011;10742;51.816;8.662;2022-10-31T03:49:02;52.73;;;20.00;;
21168;SDS011;10742;51.816;8.662;2022-10-31T03:52:19;70.20;;;22.40;;
21168;SDS011;10742;51.816;8.662;2022-10-31T03:59:05;67.47;;;21.97;;
21168;SDS011;10742;51.816;8.662;2022-10-31T04:02:20;48.33;;;16.83;;
21168;SDS011;10742;51.816;8.662;2022-10-31T04:05:27;33.67;;;15.90;;
21168;SDS011;10742;51.816;8.662;2022-10-31T04:08:44;53.57;;;18.87;;
21168;SDS011;10742;51.816;8.662;2022-10-31T04:11:54;37.67;;;14.23;;
21168;SDS011;10742;51.816;8.662;2022-10-31T04:15:09;32.03;;;12.50;;
21168;SDS011;10742;51.816;8.662;2022-10-31T04:18:14;43.30;;;14.73;;
21168;SDS011;10742;51.816;8.662;2022-10-31T04:21:17;41.83;;;15.73;;
21168;SDS011;10742;51.816;8.662;2022-10-31T04:24:20;49.23;;;16.50;;
21168;SDS011;10742;51.816;8.662;2022-10-31T04:27:22;28.73;;;10.40;;
21168;SDS011;10742;51.816;8.662;2022-10-31T04:30:25;57.17;;;15.47;;
21168;SDS011;10742;51.816;8.662;2022-10-31T04:33:28;56.17;;;15.63;;
21168;SDS011;10742;51.816;8.662;2022-10-31T04:36:31;40.67;;;11.43;;
21168;SDS011;10742;51.816;8.662;2022-10-31T04:39:33;20.43;;;9.70;;
21168;SDS011;10742;51.816;8.662;2022-10-31T04:43:10;25.57;;;8.07;;
21168;SDS011;10742;51.816;8.662;2022-10-31T04:46:14;16.23;;;7.73;;
21168;SDS011;10742;51.816;8.662;2022-10-31T04:49:16;20.60;;;8.53;;
21168;SDS011;10742;51.816;8.662;2022-10-31T04:52:44;15.20;;;6.23;;
21168;SDS011;10742;51.816;8.662;2022-10-31T04:56:09;14.47;;;6.67;;
21168;SDS011;10742;51.816;8.662;2022-10-31T04:59:35;20.70;;;9.17;;
21168;SDS011;10742;51.816;8.662;2022-10-31T05:02:57;17.40;;;7.77;;
21168;SDS011;10742;51.816;8.662;2022-10-31T05:06:20;20.87;;;8.00;;
21168;SDS011;10742;51.816;8.662;2022-10-31T05:09:41;19.27;;;7.87;;
21168;SDS011;10742;51.816;8.662;2022-10-31T05:13:03;19.27;;;8.13;;
21168;SDS011;10742;51.816;8.662;2022-10-31T05:16:44;15.07;;;7.30;;
21168;SDS011;10742;51.816;8.662;2022-10-31T05:20:30;22.47;;;8.07;;
21168;SDS011;10742;51.816;8.662;2022-10-31T05:24:06;17.00;;;7.83;;
21168;SDS011;10742;51.816;8.662;2022-10-31T05:27:28;31.03;;;12.67;;
21168;SDS011;10742;51.816;8.662;2022-10-31T05:30:31;40.90;;;17.07;;
21168;SDS011;10742;51.816;8.662;2022-10-31T05:33:34;66.00;;;21.57;;
21168;SDS011;10742;51.816;8.662;2022-10-31T05:36:56;53.37;;;20.13;;
21168;SDS011;10742;51.816;8.662;2022-10-31T05:39:59;78.73;;;30.63;;
21168;SDS011;10742;51.816;8.662;2022-10-31T05:43:05;204.60;;;71.93;;
21168;SDS011;10742;51.816;8.662;2022-10-31T05:46:07;268.17;;;97.57;;
21168;SDS011;10742;51.816;8.662;2022-10-31T05:49:48;302.93;;;98.87;;
21168;SDS011;10742;51.816;8.662;2022-10-31T05:53:16;444.20;;;132.47;;
21168;SDS011;10742;51.816;8.662;2022-10-31T05:56:19;899.97;;;244.70;;
21168;SDS011;10742;51.816;8.662;2022-10-31T05:59:21;1139.80;;;295.80;;
21168;SDS011;10742;51.816;8.662;2022-10-31T06:02:24;936.80;;;239.60;;
21168;SDS011;10742;51.816;8.662;2022-10-31T06:05:51;951.90;;;242.93;;
21168;SDS011;10742;51.816;8.662;2022-10-31T06:08:56;893.40;;;227.97;;
21168;SDS011;10742;51.816;8.662;2022-10-31T06:11:59;970.27;;;237.60;;
21168;SDS011;10742;51.816;8.662;2022-10-31T06:15:02;703.53;;;196.83;;
21168;SDS011;10742;51.816;8.662;2022-10-31T06:18:08;733.37;;;189.67;;
21168;SDS011;10742;51.816;8.662;2022-10-31T06:21:20;448.57;;;131.73;;
21168;SDS011;10742;51.816;8.662;2022-10-31T06:24:24;977.97;;;248.90;;
21168;SDS011;10742;51.816;8.662;2022-10-31T06:27:27;786.53;;;203.47;;
21168;SDS011;10742;51.816;8.662;2022-10-31T06:30:30;592.57;;;186.90;;
21168;SDS011;10742;51.816;8.662;2022-10-31T06:33:33;644.73;;;176.83;;
21168;SDS011;10742;51.816;8.662;2022-10-31T06:36:36;620.23;;;186.87;;
21168;SDS011;10742;51.816;8.662;2022-10-31T06:39:40;670.67;;;194.90;;
21168;SDS011;10742;51.816;8.662;2022-10-31T06:42:44;770.50;;;201.63;;
21168;SDS011;10742;51.816;8.662;2022-10-31T06:45:47;1033.37;;;252.70;;
21168;SDS011;10742;51.816;8.662;2022-10-31T06:48:52;840.00;;;207.13;;
21168;SDS011;10742;51.816;8.662;2022-10-31T06:52:08;631.50;;;184.83;;
21168;SDS011;10742;51.816;8.662;2022-10-31T06:55:11;671.07;;;203.57;;
21168;SDS011;10742;51.816;8.662;2022-10-31T06:58:13;594.67;;;173.77;;
21168;SDS011;10742;51.816;8.662;2022-10-31T07:01:19;817.93;;;217.87;;
21168;SDS011;10742;51.816;8.662;2022-10-31T07:04:22;944.57;;;251.37;;
21168;SDS011;10742;51.816;8.662;2022-10-31T07:07:24;1191.33;;;281.53;;
21168;SDS011;10742;51.816;8.662;2022-10-31T07:10:29;1107.47;;;272.47;;
21168;SDS011;10742;51.816;8.662;2022-10-31T07:13:36;1592.37;;;352.03;;
21168;SDS011;10742;51.816;8.662;2022-10-31T07:16:41;1804.40;;;390.27;;
21168;SDS011;10742;51.816;8.662;2022-10-31T07:19:47;1851.43;;;405.73;;
21168;SDS011;10742;51.816;8.662;2022-10-31T07:22:51;1999.90;;;521.93;;
21168;SDS011;10742;51.816;8.662;2022-10-31T07:25:54;1999.90;;;584.30;;
21168;SDS011;10742;51.816;8.662;2022-10-31T07:29:01;1999.90;;;629.37;;
21168;SDS011;10742;51.816;8.662;2022-10-31T07:32:04;1999.90;;;679.73;;
21168;SDS011;10742;51.816;8.662;2022-10-31T07:35:09;1999.90;;;707.17;;
21168;SDS011;10742;51.816;8.662;2022-10-31T07:38:21;1999.90;;;773.70;;
21168;SDS011;10742;51.816;8.662;2022-10-31T07:41:24;1999.90;;;764.00;;
21168;SDS011;10742;51.816;8.662;2022-10-31T07:44:26;1999.90;;;807.87;;
21168;SDS011;10742;51.816;8.662;2022-10-31T07:48:01;1999.90;;;999.90;;
21168;SDS011;10742;51.816;8.662;2022-10-31T07:51:24;1999.90;;;999.90;;
21168;SDS011;10742;51.816;8.662;2022-10-31T07:54:52;1999.90;;;999.90;;
21168;SDS011;10742;51.816;8.662;2022-10-31T07:58:07;1999.90;;;999.90;;
21168;SDS011;10742;51.816;8.662;2022-10-31T08:01:13;1999.90;;;999.90;;
21168;SDS011;10742;51.816;8.662;2022-10-31T08:04:25;1999.90;;;999.90;;
21168;SDS011;10742;51.816;8.662;2022-10-31T08:07:46;1999.90;;;984.07;;
21168;SDS011;10742;51.816;8.662;2022-10-31T08:10:54;1999.90;;;995.73;;
21168;SDS011;10742;51.816;8.662;2022-10-31T08:13:56;1999.90;;;999.90;;
21168;SDS011;10742;51.816;8.662;2022-10-31T08:16:59;1999.90;;;999.90;;
21168;SDS011;10742;51.816;8.662;2022-10-31T08:20:09;1999.90;;;992.67;;
21168;SDS011;10742;51.816;8.662;2022-10-31T08:23:37;1999.90;;;979.63;;
21168;SDS011;10742;51.816;8.662;2022-10-31T08:26:58;1999.90;;;994.00;;
21168;SDS011;10742;51.816;8.662;2022-10-31T08:30:21;1999.90;;;995.33;;
21168;SDS011;10742;51.816;8.662;2022-10-31T08:34:02;1999.90;;;971.77;;
21168;SDS011;10742;51.816;8.662;2022-10-31T08:37:51;1999.90;;;953.03;;
21168;SDS011;10742;51.816;8.662;2022-10-31T08:41:18;1999.90;;;981.70;;
21168;SDS011;10742;51.816;8.662;2022-10-31T08:44:40;1999.90;;;993.57;;
21168;SDS011;10742;51.816;8.662;2022-10-31T08:48:03;1999.90;;;999.90;;
21168;SDS011;10742;51.816;8.662;2022-10-31T08:51:26;1999.90;;;999.90;;
21168;SDS011;10742;51.816;8.662;2022-10-31T08:54:49;1999.90;;;999.90;;
21168;SDS011;10742;51.816;8.662;2022-10-31T08:58:39;1999.90;;;997.77;;
21168;SDS011;10742;51.816;8.662;2022-10-31T09:02:02;1999.90;;;997.20;;
21168;SDS011;10742;51.816;8.662;2022-10-31T09:05:24;1999.90;;;995.40;;
21168;SDS011;10742;51.816;8.662;2022-10-31T09:08:45;1999.90;;;999.90;;
21168;SDS011;10742;51.816;8.662;2022-10-31T09:12:06;1999.90;;;999.90;;
21168;SDS011;10742;51.816;8.662;2022-10-31T09:15:48;1999.90;;;999.90;;
21168;SDS011;10742;51.816;8.662;2022-10-31T09:19:17;1999.90;;;999.90;;
21168;SDS011;10742;51.816;8.662;2022-10-31T09:22:39;1999.90;;;999.90;;
21168;SDS011;10742;51.816;8.662;2022-10-31T09:26:01;1999.90;;;999.90;;
21168;SDS011;10742;51.816;8.662;2022-10-31T09:29:22;1999.90;;;999.90;;
21168;SDS011;10742;51.816;8.662;2022-10-31T09:32:30;1999.90;;;999.90;;
21168;SDS011;10742;51.816;8.662;2022-10-31T09:35:33;1999.90;;;999.90;;
21168;SDS011;10742;51.816;8.662;2022-10-31T09:38:54;1999.90;;;999.90;;
21168;SDS011;10742;51.816;8.662;2022-10-31T09:50:19;1999.90;;;978.87;;
21168;SDS011;10742;51.816;8.662;2022-10-31T09:53:55;1999.90;;;996.20;;
21168;SDS011;10742;51.816;8.662;2022-10-31T09:57:34;1999.90;;;965.80;;
21168;SDS011;10742;51.816;8.662;2022-10-31T10:00:59;1999.90;;;969.00;;
21168;SDS011;10742;51.816;8.662;2022-10-31T10:08:16;1999.90;;;898.20;;
21168;SDS011;10742;51.816;8.662;2022-10-31T10:12:18;1999.90;;;946.23;;
21168;SDS011;10742;51.816;8.662;2022-10-31T10:15:59;1999.90;;;860.70;;
21168;SDS011;10742;51.816;8.662;2022-10-31T10:19:13;1999.90;;;744.80;;
21168;SDS011;10742;51.816;8.662;2022-10-31T10:25:37;1999.90;;;622.90;;
21168;SDS011;10742;51.816;8.662;2022-10-31T10:28:41;1999.90;;;617.90;;
21168;SDS011;10742;51.816;8.662;2022-10-31T10:31:47;1744.37;;;420.93;;
21168;SDS011;10742;51.816;8.662;2022-10-31T10:35:08;1813.47;;;418.33;;
21168;SDS011;10742;51.816;8.662;2022-10-31T10:38:29;868.60;;;269.07;;
21168;SDS011;10742;51.816;8.662;2022-10-31T10:41:35;1115.88;;;313.73;;
21168;SDS011;10742;51.816;8.662;2022-10-31T10:44:40;632.53;;;196.17;;
21168;SDS011;10742;51.816;8.662;2022-10-31T10:48:19;796.22;;;227.82;;
21168;SDS011;10742;51.816;8.662;2022-10-31T10:55:29;346.25;;;98.53;;
21168;SDS011;10742;51.816;8.662;2022-10-31T10:58:48;526.22;;;145.93;;
21168;SDS011;10742;51.816;8.662;2022-10-31T11:01:51;616.33;;;196.40;;
21168;SDS011;10742;51.816;8.662;2022-10-31T11:04:55;377.67;;;109.07;;
21168;SDS011;10742;51.816;8.662;2022-10-31T11:07:59;255.25;;;80.80;;
21168;SDS011;10742;51.816;8.662;2022-10-31T11:11:07;150.38;;;49.10;;
21168;SDS011;10742;51.816;8.662;2022-10-31T11:14:19;187.88;;;54.25;;
21168;SDS011;10742;51.816;8.662;2022-10-31T11:17:25;146.70;;;43.30;;
21168;SDS011;10742;51.816;8.662;2022-10-31T11:20:32;86.30;;;30.48;;
21168;SDS011;10742;51.816;8.662;2022-10-31T11:23:38;117.22;;;41.17;;
21168;SDS011;10742;51.816;8.662;2022-10-31T11:26:41;74.93;;;33.15;;
21168;SDS011;10742;51.816;8.662;2022-10-31T11:29:45;49.22;;;22.52;;
21168;SDS011;10742;51.816;8.662;2022-10-31T11:32:48;46.28;;;18.48;;
21168;SDS011;10742;51.816;8.662;2022-10-31T11:35:54;34.88;;;16.65;;
21168;SDS011;10742;51.816;8.662;2022-10-31T11:38:57;28.85;;;13.45;;
21168;SDS011;10742;51.816;8.662;2022-10-31T11:42:03;25.55;;;12.02;;
21168;SDS011;10742;51.816;8.662;2022-10-31T11:45:16;23.00;;;11.40;;
21168;SDS011;10742;51.816;8.662;2022-10-31T11:48:20;26.08;;;10.77;;
21168;SDS011;10742;51.816;8.662;2022-10-31T11:51:30;25.63;;;10.77;;
21168;SDS011;10742;51.816;8.662;2022-10-31T11:54:45;23.23;;;11.02;;
21168;SDS011;10742;51.816;8.662;2022-10-31T11:58:19;24.92;;;11.05;;
21168;SDS011;10742;51.816;8.662;2022-10-31T12:01:27;23.25;;;11.30;;
21168;SDS011;10742;51.816;8.662;2022-10-31T12:04:39;22.55;;;10.40;;
21168;SDS011;10742;51.816;8.662;2022-10-31T12:07:47;25.58;;;10.13;;
21168;SDS011;10742;51.816;8.662;2022-10-31T12:14:32;26.15;;;8.48;;
21168;SDS011;10742;51.816;8.662;2022-10-31T12:21:46;20.95;;;7.53;;
21168;SDS011;10742;51.816;8.662;2022-10-31T12:28:57;18.38;;;7.00;;
21168;SDS011;10742;51.816;8.662;2022-10-31T12:38:58;20.20;;;6.32;;
21168;SDS011;10742;51.816;8.662;2022-10-31T12:42:35;14.75;;;5.82;;
21168;SDS011;10742;51.816;8.662;2022-10-31T12:45:53;21.08;;;6.35;;
21168;SDS011;10742;51.816;8.662;2022-10-31T12:49:04;11.38;;;5.30;;
21168;SDS011;10742;51.816;8.662;2022-10-31T12:55:53;13.45;;;4.90;;
21168;SDS011;10742;51.816;8.662;2022-10-31T12:59:21;15.60;;;5.70;;
21168;SDS011;10742;51.816;8.662;2022-10-31T13:05:36;15.13;;;5.85;;
21168;SDS011;10742;51.816;8.662;2022-10-31T13:08:44;15.77;;;6.00;;
21168;SDS011;10742;51.816;8.662;2022-10-31T13:11:53;18.55;;;6.03;;
21168;SDS011;10742;51.816;8.662;2022-10-31T13:15:06;17.67;;;6.43;;
21168;SDS011;10742;51.816;8.662;2022-10-31T13:18:33;14.35;;;6.18;;
21168;SDS011;10742;51.816;8.662;2022-10-31T13:21:44;16.13;;;6.28;;
21168;SDS011;10742;51.816;8.662;2022-10-31T13:25:19;18.67;;;6.18;;
21168;SDS011;10742;51.816;8.662;2022-10-31T13:28:37;13.93;;;5.75;;
21168;SDS011;10742;51.816;8.662;2022-10-31T13:32:05;18.25;;;6.65;;
21168;SDS011;10742;51.816;8.662;2022-10-31T13:35:12;21.67;;;6.82;;
21168;SDS011;10742;51.816;8.662;2022-10-31T13:41:49;21.10;;;7.32;;
21168;SDS011;10742;51.816;8.662;2022-10-31T13:45:06;13.93;;;6.82;;
21168;SDS011;10742;51.816;8.662;2022-10-31T13:48:31;17.02;;;7.07;;
21168;SDS011;10742;51.816;8.662;2022-10-31T13:51:37;19.13;;;7.03;;
21168;SDS011;10742;51.816;8.662;2022-10-31T13:54:40;22.23;;;7.45;;
21168;SDS011;10742;51.816;8.662;2022-10-31T13:57:45;21.92;;;6.85;;
21168;SDS011;10742;51.816;8.662;2022-10-31T14:00:57;20.23;;;7.95;;
21168;SDS011;10742;51.816;8.662;2022-10-31T14:04:05;20.85;;;7.47;;
21168;SDS011;10742;51.816;8.662;2022-10-31T14:07:18;18.92;;;6.97;;
21168;SDS011;10742;51.816;8.662;2022-10-31T14:13:30;16.02;;;7.15;;
21168;SDS011;10742;51.816;8.662;2022-10-31T14:17:01;20.50;;;7.15;;
21168;SDS011;10742;51.816;8.662;2022-10-31T14:24:00;15.10;;;6.80;;
21168;SDS011;10742;51.816;8.662;2022-10-31T14:27:49;17.85;;;7.25;;
21168;SDS011;10742;51.816;8.662;2022-10-31T14:30:29;19.25;;;7.07;;
21168;SDS011;10742;51.816;8.662;2022-10-31T14:33:32;19.95;;;6.85;;
21168;SDS011;10742;51.816;8.662;2022-10-31T14:39:58;22.77;;;8.95;;
21168;SDS011;10742;51.816;8.662;2022-10-31T14:47:13;24.20;;;8.98;;
21168;SDS011;10742;51.816;8.662;2022-10-31T14:50:48;19.15;;;7.68;;
21168;SDS011;10742;51.816;8.662;2022-10-31T14:53:52;30.70;;;12.18;;
21168;SDS011;10742;51.816;8.662;2022-10-31T14:56:59;21.88;;;9.55;;
21168;SDS011;10742;51.816;8.662;2022-10-31T15:00:12;24.05;;;8.93;;
21168;SDS011;10742;51.816;8.662;2022-10-31T15:03:26;33.28;;;12.52;;
21168;SDS011;10742;51.816;8.662;2022-10-31T15:06:44;23.60;;;8.98;;
21168;SDS011;10742;51.816;8.662;2022-10-31T15:10:19;34.00;;;15.68;;
21168;SDS011;10742;51.816;8.662;2022-10-31T15:16:56;31.23;;;12.35;;
21168;SDS011;10742;51.816;8.662;2022-10-31T15:20:00;26.08;;;10.02;;
21168;SDS011;10742;51.816;8.662;2022-10-31T15:23:03;21.52;;;8.80;;
21168;SDS011;10742;51.816;8.662;2022-10-31T15:26:06;24.35;;;8.73;;
21168;SDS011;10742;51.816;8.662;2022-10-31T15:29:15;28.30;;;8.77;;
21168;SDS011;10742;51.816;8.662;2022-10-31T15:32:28;19.80;;;7.68;;
21168;SDS011;10742;51.816;8.662;2022-10-31T15:35:31;22.47;;;8.20;;
21168;SDS011;10742;51.816;8.662;2022-10-31T15:38:33;24.63;;;9.93;;
21168;SDS011;10742;51.816;8.662;2022-10-31T15:41:38;22.80;;;9.07;;
21168;SDS011;10742;51.816;8.662;2022-10-31T15:44:44;22.45;;;8.52;;
21168;SDS011;10742;51.816;8.662;2022-10-31T15:48:00;20.50;;;7.90;;
21168;SDS011;10742;51.816;8.662;2022-10-31T15:51:15;18.77;;;7.50;;
21168;SDS011;10742;51.816;8.662;2022-10-31T15:54:17;18.95;;;8.07;;
21168;SDS011;10742;51.816;8.662;2022-10-31T15:57:20;22.08;;;7.97;;
21168;SDS011;10742;51.816;8.662;2022-10-31T16:00:27;17.80;;;7.00;;
21168;SDS011;10742;51.816;8.662;2022-10-31T16:03:32;18.83;;;7.13;;
21168;SDS011;10742;51.816;8.662;2022-10-31T16:06:35;17.05;;;6.97;;
21168;SDS011;10742;51.816;8.662;2022-10-31T16:09:47;15.97;;;7.37;;
21168;SDS011;10742;51.816;8.662;2022-10-31T16:12:54;26.13;;;7.53;;
21168;SDS011;10742;51.816;8.662;2022-10-31T16:15:58;20.53;;;7.77;;
21168;SDS011;10742;51.816;8.662;2022-10-31T16:19:27;19.17;;;7.23;;
21168;SDS011;10742;51.816;8.662;2022-10-31T16:22:36;24.30;;;7.40;;
21168;SDS011;10742;51.816;8.662;2022-10-31T16:25:40;20.57;;;7.33;;
21168;SDS011;10742;51.816;8.662;2022-10-31T16:28:50;17.10;;;7.40;;
21168;SDS011;10742;51.816;8.662;2022-10-31T16:31:57;22.43;;;7.57;;
21168;SDS011;10742;51.816;8.662;2022-10-31T16:35:00;18.40;;;7.40;;
21168;SDS011;10742;51.816;8.662;2022-10-31T16:38:13;18.90;;;8.17;;
21168;SDS011;10742;51.816;8.662;2022-10-31T16:41:15;18.93;;;7.67;;
21168;SDS011;10742;51.816;8.662;2022-10-31T16:44:22;25.60;;;9.07;;
21168;SDS011;10742;51.816;8.662;2022-10-31T16:47:26;23.77;;;9.07;;
21168;SDS011;10742;51.816;8.662;2022-10-31T16:50:28;26.23;;;9.27;;
21168;SDS011;10742;51.816;8.662;2022-10-31T16:53:30;17.57;;;7.63;;
21168;SDS011;10742;51.816;8.662;2022-10-31T16:56:33;19.27;;;8.83;;
21168;SDS011;10742;51.816;8.662;2022-10-31T16:59:37;22.67;;;9.63;;
21168;SDS011;10742;51.816;8.662;2022-10-31T17:02:40;29.00;;;10.03;;
21168;SDS011;10742;51.816;8.662;2022-10-31T17:05:43;31.83;;;10.37;;
21168;SDS011;10742;51.816;8.662;2022-10-31T17:08:45;23.13;;;10.50;;
21168;SDS011;10742;51.816;8.662;2022-10-31T17:11:48;23.43;;;9.93;;
21168;SDS011;10742;51.816;8.662;2022-10-31T17:14:53;24.00;;;11.03;;
21168;SDS011;10742;51.816;8.662;2022-10-31T17:17:55;24.57;;;8.53;;
21168;SDS011;10742;51.816;8.662;2022-10-31T17:20:58;22.37;;;9.77;;
21168;SDS011;10742;51.816;8.662;2022-10-31T17:24:03;29.47;;;14.53;;
21168;SDS011;10742;51.816;8.662;2022-10-31T17:27:06;32.23;;;15.27;;
21168;SDS011;10742;51.816;8.662;2022-10-31T17:30:10;847.50;;;180.10;;
21168;SDS011;10742;51.816;8.662;2022-10-31T17:33:14;38.47;;;18.87;;
21168;SDS011;10742;51.816;8.662;2022-10-31T17:36:18;37.80;;;14.87;;
21168;SDS011;10742;51.816;8.662;2022-10-31T17:39:21;28.93;;;15.40;;
21168;SDS011;10742;51.816;8.662;2022-10-31T17:42:23;27.30;;;13.33;;
21168;SDS011;10742;51.816;8.662;2022-10-31T17:45:26;25.23;;;12.83;;
21168;SDS011;10742;51.816;8.662;2022-10-31T17:48:28;37.40;;;14.60;;
21168;SDS011;10742;51.816;8.662;2022-10-31T17:51:31;31.70;;;16.63;;
21168;SDS011;10742;51.816;8.662;2022-10-31T17:54:33;28.97;;;13.67;;
21168;SDS011;10742;51.816;8.662;2022-10-31T17:57:36;28.87;;;14.30;;
21168;SDS011;10742;51.816;8.662;2022-10-31T18:00:39;32.87;;;13.30;;
21168;SDS011;10742;51.816;8.662;2022-10-31T18:03:43;26.13;;;13.60;;
21168;SDS011;10742;51.816;8.662;2022-10-31T18:06:46;31.27;;;14.07;;
21168;SDS011;10742;51.816;8.662;2022-10-31T18:09:50;27.50;;;14.27;;
21168;SDS011;10742;51.816;8.662;2022-10-31T18:12:52;27.90;;;13.57;;
21168;SDS011;10742;51.816;8.662;2022-10-31T18:15:55;30.40;;;14.03;;
21168;SDS011;10742;51.816;8.662;2022-10-31T18:18:57;28.33;;;13.43;;
21168;SDS011;10742;51.816;8.662;2022-10-31T18:22:02;29.27;;;13.33;;
21168;SDS011;10742;51.816;8.662;2022-10-31T18:25:04;30.47;;;13.60;;
21168;SDS011;10742;51.816;8.662;2022-10-31T18:28:07;31.93;;;14.17;;
21168;SDS011;10742;51.816;8.662;2022-10-31T18:31:10;27.03;;;12.47;;
21168;SDS011;10742;51.816;8.662;2022-10-31T18:34:15;27.43;;;13.23;;
21168;SDS011;10742;51.816;8.662;2022-10-31T18:37:18;22.60;;;11.70;;
21168;SDS011;10742;51.816;8.662;2022-10-31T18:40:20;29.47;;;13.50;;
21168;SDS011;10742;51.816;8.662;2022-10-31T18:43:23;28.03;;;13.10;;
21168;SDS011;10742;51.816;8.662;2022-10-31T18:46:26;25.83;;;12.83;;
21168;SDS011;10742;51.816;8.662;2022-10-31T18:49:29;25.87;;;12.17;;
21168;SDS011;10742;51.816;8.662;2022-10-31T18:52:33;22.67;;;10.77;;
21168;SDS011;10742;51.816;8.662;2022-10-31T18:55:39;21.10;;;10.67;;
21168;SDS011;10742;51.816;8.662;2022-10-31T18:58:43;25.50;;;11.13;;
21168;SDS011;10742;51.816;8.662;2022-10-31T19:01:45;23.07;;;11.73;;
21168;SDS011;10742;51.816;8.662;2022-10-31T19:04:47;27.03;;;10.60;;
21168;SDS011;10742;51.816;8.662;2022-10-31T19:08:08;23.80;;;10.03;;
21168;SDS011;10742;51.816;8.662;2022-10-31T19:11:30;21.60;;;9.70;;
21168;SDS011;10742;51.816;8.662;2022-10-31T19:14:53;22.90;;;10.90;;
21168;SDS011;10742;51.816;8.662;2022-10-31T19:18:14;29.10;;;11.83;;
21168;SDS011;10742;51.816;8.662;2022-10-31T19:21:35;26.93;;;10.90;;
21168;SDS011;10742;51.816;8.662;2022-10-31T19:24:56;21.80;;;9.30;;
21168;SDS011;10742;51.816;8.662;2022-10-31T19:28:17;21.63;;;9.13;;
21168;SDS011;10742;51.816;8.662;2022-10-31T19:31:20;21.97;;;8.73;;
21168;SDS011;10742;51.816;8.662;2022-10-31T19:34:22;23.17;;;9.10;;
21168;SDS011;10742;51.816;8.662;2022-10-31T19:37:25;23.23;;;9.20;;
21168;SDS011;10742;51.816;8.662;2022-10-31T19:40:27;23.50;;;9.67;;
21168;SDS011;10742;51.816;8.662;2022-10-31T19:43:29;21.77;;;9.47;;
21168;SDS011;10742;51.816;8.662;2022-10-31T19:46:31;22.50;;;9.93;;
21168;SDS011;10742;51.816;8.662;2022-10-31T19:49:48;23.63;;;9.90;;
21168;SDS011;10742;51.816;8.662;2022-10-31T19:52:51;23.30;;;10.23;;